Sary-Arka Airport
UAKK : now visible

Airfield :











YOU CAN JOIN US ON...

 
LOGIN :

Register | Disclaimer

   EN    FR    IT 

 









Legend :    VFR   Marginal VFR   IFR   Intensive IFR   Very Intensive IFR
Visi :
Ceiling :
>= 8 km
>= 3000ft
5 to 8 km
1000 to 3000 ft
1500m to 5 km
500 to 1000 ft
800 to 1500m
200 to 500 ft
< 800m
< 200 ft
Symbols :   Thunderstorms  Fog  Heavy snow  Heavy precipitations  Wind > 20 kt







- Airport Elevation : 1765 ft
- IATA code : KGF


UAKK - Sary-Arka

CURRENT METAR :
  • 172230Z 22012MPS 0800 R23/1800 SN BLSN SCT007 OVC023 M03/M04 Q0997 R23/950546 NOSIG RMK QFE702/0936

EXPIRED METARs :
  • 172200Z 20014MPS 2400 BLSN SCT012 BKN023 M04/M04 Q0996 R23/950546 NOSIG RMK QFE701/0935
  • 172130Z 19012MPS 3000 BLSN SCT018 M04/M05 Q0996 R23/950546 NOSIG RMK QFE701/0935
  • 172100Z 18013MPS 3200 BLSN BKN024 M04/M05 Q0996 R23/950546 NOSIG RMK QFE701/0935
  • 172030Z 18015MPS 0900 R23/2000U BLSN BKN018 M04/M04 Q0996 R23/950546 NOSIG RMK QFE701/0935
  • 172000Z 18014MPS 0800 R23/1800D SN BLSN BKN020 M04/M04 Q0996 R23/950546 NOSIG RMK QFE701/0935
  • 171930Z 18013MPS 0700 R23/1600U SN BLSN BKN042 M03/M04 Q0996 R23/950546 NOSIG RMK QFE701/0935

TAF TAF UAKK
Valid from the 17 at 18:00 until the 18 at 18:00 UTC


171700Z 1718/1818 17013MPS 3000 SHSNRA BLSN BKN015CB OVC030 TXM00/1722Z TNM06/1806Z
TEMPO 1718/1723 19017MPS 0800 FZRASN BLSN BKN005 OVC015CB
FM172300 24017MPS 2000 SN BLSN BKN007 OVC020
TEMPO 1723/1811 22020MPS 0500 SHSN BLSN BKN004 OVC015CB
BECMG 1813/1815 19013MPS
TEMPO 1813/1818 17008MPS 5000 -SN BKN10 BKN020
UACC FIR / Asia



MET'MAP, your aeronautical weather chart ! - Copyright ORBIFLY December 2007 - Disclaimer

ORBIFLY MET'MAP TEAM :

Programming & Development : Alexandra Zaïnal
Concept & Development : Baudouin d'Aumeries
Co-Development & Prog : Marc-Olivier Méhu
Technical & hardware support : Manuel Goepfert

Contact : metmap@orbifly.com




SOURCES & CREDITS :

   NOAA       Earth
Advisory